If you wish to contribute or participate in the discussions about articles you are invited to join SKYbrary as a registered user

 Actions

Lomé-Tokoin Airport

From SKYbrary Wiki

DXXX
Airport
ICAO: DXXX – IATA: LFW
Summary
Name Lomé-Tokoin Airport
Region Africa
Territory Togo TG.gif
Location Lomé
Serving Lomé
Elevation 21.946 m
72 ft
72 ft21.946 m
Coordinates 6° 9' 57.00" N, 1° 15' 15.00" E
Runways
Designator Length Width Surface ROPS
4/22 3001 m9,845.801 ft
45 m147.638 ft
ASP yes/yes


METAR
Observation DXXX 142100Z 20004KT 9999 FEW013 29/25 Q1011 NOSIG
Station Lome
Date/Time 14 May 2019 21:00:00
Wind direction 200°
Wind speed 04 kts
Lowest cloud amount few clouds
Temperature 29°C
Dew point 25°C
Humidity 79%
QNH 1011 hPa
Weather condition n/a

Lomé-Tokoin Airport

ICAO: DXXX IATA: LFW

Description

Lomé-Tokoin Airport, also known as Gnassingbé Eyadéma International Airport, is an airport in Lomé, the capital of Togo.

Maps

Terrain

Loading map...

Airport Layout

Loading map...


Accidents & Serious Incidents at or in vicinity of DXXX

None on SKYbrary